createdAt,value
2022-09-25T00:02:07.882Z,100404.78
2022-09-25T00:04:36.659Z,100402.38
2022-09-25T00:07:05.218Z,100399.47
2022-09-25T00:09:33.804Z,100402.09
2022-09-25T00:12:02.984Z,100397.97
2022-09-25T00:14:31.544Z,100396.41
2022-09-25T00:17:01.568Z,100401.63
2022-09-25T00:19:44.348Z,100399.97
2022-09-25T00:22:12.915Z,100383.34
2022-09-25T00:24:41.647Z,100392.75
2022-09-25T00:27:10.252Z,100397.91
2022-09-25T00:29:41.221Z,100395.91
2022-09-25T00:32:13.300Z,100390.41
2022-09-25T00:34:42.195Z,100393.78
2022-09-25T00:37:10.943Z,100392.03
2022-09-25T00:39:39.772Z,100388.41
2022-09-25T00:42:08.306Z,100384.97
2022-09-25T00:45:01.018Z,100385.66
2022-09-25T00:47:49.916Z,100380.66
2022-09-25T00:50:37.169Z,100368.91
2022-09-25T00:53:13.787Z,100375.59
2022-09-25T00:55:46.266Z,100374.88
2022-09-25T00:58:21.022Z,100375.97
2022-09-25T01:00:50.366Z,100372.28
2022-09-25T01:03:22.105Z,100376.75
2022-09-25T01:05:51.935Z,100378.44
2022-09-25T01:08:26.665Z,100375.75
2022-09-25T01:10:55.847Z,100378.44
2022-09-25T01:13:24.772Z,100381.97
2022-09-25T01:16:06.149Z,100379.19
2022-09-25T01:18:54.297Z,100383.34
2022-09-25T01:21:40.930Z,100369.59
2022-09-25T01:24:43.843Z,100376.59
2022-09-25T01:27:45.645Z,100376.50
2022-09-25T01:30:19.182Z,100374.06
2022-09-25T01:33:02.056Z,100364.44
2022-09-25T01:35:44.965Z,100373.06
2022-09-25T01:38:27.149Z,100368.28
2022-09-25T01:41:11.338Z,100365.13
2022-09-25T01:43:46.092Z,100366.16
2022-09-25T01:46:21.880Z,100363.63
2022-09-25T01:48:59.055Z,100358.25
2022-09-25T01:51:35.678Z,100347.25
2022-09-25T01:54:11.359Z,100357.47
2022-09-25T01:56:49.274Z,100352.16
2022-09-25T01:59:25.942Z,100357.38
2022-09-25T02:02:00.645Z,100358.47
2022-09-25T02:04:36.599Z,100352.34
2022-09-25T02:07:12.161Z,100353.25
2022-09-25T02:09:47.218Z,100361.00
2022-09-25T02:12:22.153Z,100346.25
2022-09-25T02:14:55.454Z,100355.16
2022-09-25T02:17:56.300Z,100355.31
2022-09-25T02:20:34.415Z,100350.25
2022-09-25T02:23:18.801Z,100349.47
2022-09-25T02:25:56.324Z,100341.78
2022-09-25T02:28:25.153Z,100338.81
2022-09-25T02:30:59.273Z,100343.25
2022-09-25T02:33:29.736Z,100324.59
2022-09-25T02:36:04.388Z,100339.19
2022-09-25T02:38:35.753Z,100337.59
2022-09-25T02:41:21.902Z,100332.44
2022-09-25T02:44:08.409Z,100337.34
2022-09-25T02:46:49.530Z,100338.50
2022-09-25T02:49:30.746Z,100334.28
2022-09-25T02:52:10.592Z,100335.28
2022-09-25T02:54:47.569Z,100330.34
2022-09-25T02:57:26.541Z,100336.56
2022-09-25T03:00:01.758Z,100326.56
2022-09-25T03:02:34.708Z,100333.63
2022-09-25T03:05:08.393Z,100329.41
2022-09-25T03:07:52.361Z,100330.47
2022-09-25T03:10:22.178Z,100330.47
2022-09-25T03:12:50.827Z,100334.03
2022-09-25T03:15:19.831Z,100323.88
2022-09-25T03:17:51.158Z,100324.06
2022-09-25T03:20:21.272Z,100320.06
2022-09-25T03:22:49.995Z,100328.97
2022-09-25T03:25:18.528Z,100325.88
2022-09-25T03:27:48.593Z,100324.03
2022-09-25T03:30:17.560Z,100316.22
2022-09-25T03:32:46.160Z,100315.63
2022-09-25T03:35:14.826Z,100324.31
2022-09-25T03:37:44.897Z,100328.66
2022-09-25T03:40:13.483Z,100325.53
2022-09-25T03:42:43.360Z,100328.91
2022-09-25T03:45:12.408Z,100323.06
2022-09-25T03:47:40.926Z,100332.75
2022-09-25T03:50:10.770Z,100324.13
2022-09-25T03:52:39.590Z,100332.16
2022-09-25T03:55:12.028Z,100326.94
2022-09-25T03:57:41.677Z,100329.75
2022-09-25T04:00:11.608Z,100329.19
2022-09-25T04:02:42.963Z,100324.16
2022-09-25T04:05:12.109Z,100329.31
2022-09-25T04:07:40.957Z,100325.75
2022-09-25T04:10:11.663Z,100331.72
2022-09-25T04:12:41.738Z,100329.03
2022-09-25T04:15:11.616Z,100322.00
2022-09-25T04:17:40.151Z,100324.53
2022-09-25T04:20:10.330Z,100322.81
2022-09-25T04:22:39.032Z,100325.66
2022-09-25T04:25:09.512Z,100328.28
2022-09-25T04:27:39.644Z,100327.41
2022-09-25T04:30:10.825Z,100330.16
2022-09-25T04:33:11.639Z,100324.94
2022-09-25T04:35:41.519Z,100298.41
2022-09-25T04:38:10.367Z,100313.03
2022-09-25T04:40:39.580Z,100319.09
2022-09-25T04:43:09.755Z,100310.16
2022-09-25T04:45:38.327Z,100309.72
2022-09-25T04:48:07.412Z,100314.78
2022-09-25T04:50:36.488Z,100305.25
2022-09-25T04:53:05.174Z,100311.34
2022-09-25T04:55:33.869Z,100313.03
2022-09-25T04:58:03.185Z,100306.00
2022-09-25T05:00:34.063Z,100308.47
2022-09-25T05:03:04.861Z,100305.84
2022-09-25T05:05:35.272Z,100308.31
2022-09-25T05:08:05.117Z,100303.81
2022-09-25T05:10:35.411Z,100305.50
2022-09-25T05:13:06.267Z,100312.13
2022-09-25T05:15:37.323Z,100314.50
2022-09-25T05:18:17.591Z,100317.81
2022-09-25T05:20:46.481Z,100316.88
2022-09-25T05:23:15.338Z,100328.88
2022-09-25T05:25:44.175Z,100314.03
2022-09-25T05:28:12.807Z,100328.41
2022-09-25T05:30:43.728Z,100328.19
2022-09-25T05:33:12.215Z,100318.38
2022-09-25T05:35:40.837Z,100328.41
2022-09-25T05:38:09.796Z,100329.84
2022-09-25T05:40:39.385Z,100329.34
2022-09-25T05:43:08.068Z,100330.81
2022-09-25T05:45:36.895Z,100328.50
2022-09-25T05:48:09.391Z,100341.88
2022-09-25T05:50:38.153Z,100331.56
2022-09-25T05:53:07.149Z,100341.69
2022-09-25T05:55:35.804Z,100339.69
2022-09-25T05:58:06.447Z,100350.59
2022-09-25T06:00:35.064Z,100357.50
2022-09-25T06:03:04.014Z,100348.81
2022-09-25T06:05:34.136Z,100350.94
2022-09-25T06:08:03.617Z,100339.13
2022-09-25T06:10:32.817Z,100339.72
2022-09-25T06:13:04.950Z,100335.09
2022-09-25T06:15:37.933Z,100336.81
2022-09-25T06:18:08.988Z,100333.44
2022-09-25T06:20:39.165Z,100338.25
2022-09-25T06:23:07.993Z,100335.38
2022-09-25T06:25:36.992Z,100336.78
2022-09-25T06:28:06.416Z,100330.59
2022-09-25T06:30:38.283Z,100325.16
2022-09-25T06:33:12.793Z,100340.44
2022-09-25T06:35:46.458Z,100333.75
2022-09-25T06:38:16.821Z,100333.75
2022-09-25T06:40:47.443Z,100333.31
2022-09-25T06:43:17.854Z,100328.63
2022-09-25T06:45:51.292Z,100324.50
2022-09-25T06:48:22.221Z,100329.00
2022-09-25T06:50:55.229Z,100330.59
2022-09-25T06:53:26.864Z,100331.63
2022-09-25T06:55:59.937Z,100327.38
2022-09-25T06:58:30.670Z,100326.94
2022-09-25T07:01:00.139Z,100326.06
2022-09-25T07:03:46.256Z,100332.81
2022-09-25T07:06:19.638Z,100321.97
2022-09-25T07:08:49.597Z,100306.44
2022-09-25T07:11:21.710Z,100315.44
2022-09-25T07:13:52.362Z,100250.41
2022-09-25T07:16:23.484Z,100315.84
2022-09-25T07:18:55.395Z,100321.31
2022-09-25T07:21:27.899Z,100324.66
2022-09-25T07:23:58.288Z,100320.78
2022-09-25T07:26:29.923Z,100319.00
2022-09-25T07:29:01.425Z,100322.97
2022-09-25T07:31:33.406Z,100315.47
2022-09-25T07:34:09.225Z,100321.16
2022-09-25T07:36:42.660Z,100318.72
2022-09-25T07:39:16.077Z,100328.59
2022-09-25T07:41:47.662Z,100329.22
2022-09-25T07:44:37.467Z,100325.28
2022-09-25T07:47:05.434Z,100325.28
2022-09-25T07:49:35.045Z,100326.03
2022-09-25T07:52:06.696Z,100319.81
2022-09-25T07:54:37.823Z,100317.66
2022-09-25T07:57:06.664Z,100319.06
2022-09-25T07:59:35.270Z,100321.41
2022-09-25T08:02:05.011Z,100315.25
2022-09-25T08:04:33.742Z,100323.94
2022-09-25T08:07:02.345Z,100320.84
2022-09-25T08:09:32.526Z,100322.22
2022-09-25T08:12:01.105Z,100319.63
2022-09-25T08:14:29.746Z,100318.13
2022-09-25T08:16:58.524Z,100316.75
2022-09-25T08:19:28.028Z,100318.28
2022-09-25T08:21:56.689Z,100313.13
2022-09-25T08:24:25.503Z,100314.28
2022-09-25T08:26:55.629Z,100314.72
2022-09-25T08:29:24.793Z,100315.50
2022-09-25T08:31:53.886Z,100313.50
2022-09-25T08:34:39.904Z,100312.06
2022-09-25T08:37:10.389Z,100305.13
2022-09-25T08:39:39.083Z,100304.16
2022-09-25T08:42:22.119Z,100304.06
2022-09-25T08:45:21.018Z,100304.31
2022-09-25T08:48:12.362Z,100313.06
2022-09-25T08:50:41.377Z,100304.13
2022-09-25T08:53:24.074Z,100294.22
2022-09-25T08:56:12.423Z,100290.78
2022-09-25T08:58:47.795Z,100293.56
2022-09-25T09:01:22.800Z,100289.63
2022-09-25T09:03:58.673Z,100280.00
2022-09-25T09:06:30.388Z,100285.00
2022-09-25T09:09:14.830Z,100270.47
2022-09-25T09:11:50.163Z,100278.53
2022-09-25T09:14:23.515Z,100276.75
2022-09-25T09:17:01.143Z,100277.75
2022-09-25T09:19:30.165Z,100273.09
2022-09-25T09:22:10.304Z,100262.81
2022-09-25T09:24:55.835Z,100267.66
2022-09-25T09:27:43.355Z,100270.31
2022-09-25T09:30:18.768Z,100264.53
2022-09-25T09:33:20.041Z,100259.59
2022-09-25T09:36:05.482Z,100260.38
2022-09-25T09:38:48.596Z,100258.31
2022-09-25T09:41:39.110Z,100257.50
2022-09-25T09:44:40.418Z,100246.81
2022-09-25T09:47:33.802Z,100248.28
2022-09-25T09:50:22.543Z,100238.38
2022-09-25T09:52:59.554Z,100236.41
2022-09-25T09:55:40.210Z,100225.72
2022-09-25T09:58:22.124Z,100220.47
2022-09-25T10:00:52.750Z,100216.47
2022-09-25T10:03:29.148Z,100213.81
2022-09-25T10:06:02.908Z,100209.09
2022-09-25T10:08:31.832Z,100200.59
2022-09-25T10:11:05.164Z,100201.28
2022-09-25T10:13:39.371Z,100192.00
2022-09-25T10:16:13.632Z,100198.03
2022-09-25T10:18:50.579Z,100207.34
2022-09-25T10:21:23.518Z,100201.22
2022-09-25T10:23:55.047Z,100193.19
2022-09-25T10:26:30.631Z,100186.97
2022-09-25T10:29:01.555Z,100188.09
2022-09-25T10:31:33.551Z,100192.66
2022-09-25T10:34:22.245Z,100190.44
2022-09-25T10:36:54.360Z,100188.88
2022-09-25T10:39:46.649Z,100190.72
2022-09-25T10:42:41.349Z,100182.88
2022-09-25T10:45:33.052Z,100185.03
2022-09-25T10:48:19.978Z,100176.47
2022-09-25T10:51:08.903Z,100185.78
2022-09-25T10:53:38.537Z,100174.56
2022-09-25T10:56:12.958Z,100171.81
2022-09-25T10:58:47.772Z,100163.88
2022-09-25T11:01:17.335Z,100166.09
2022-09-25T11:03:53.456Z,100157.75
2022-09-25T11:06:27.622Z,100160.38
2022-09-25T11:09:07.957Z,100153.50
2022-09-25T11:11:39.356Z,100145.78
2022-09-25T11:14:21.033Z,100147.16
2022-09-25T11:16:54.070Z,100146.94
2022-09-25T11:19:29.694Z,100117.19
2022-09-25T11:22:14.686Z,100141.06
2022-09-25T11:25:01.272Z,100138.38
2022-09-25T11:27:39.939Z,100138.72
2022-09-25T11:30:16.513Z,100135.56
2022-09-25T11:32:55.659Z,100137.56
2022-09-25T11:35:43.106Z,100108.72
2022-09-25T11:38:44.296Z,100130.88
2022-09-25T11:41:24.353Z,100132.38
2022-09-25T11:44:13.737Z,100126.53
2022-09-25T11:46:56.693Z,100121.41
2022-09-25T11:49:29.145Z,100115.66
2022-09-25T11:52:28.981Z,100128.75
2022-09-25T11:55:34.799Z,100110.91
2022-09-25T11:58:31.843Z,100103.88
2022-09-25T12:01:17.249Z,100110.97
2022-09-25T12:04:24.704Z,100108.00
2022-09-25T12:07:23.919Z,100109.09
2022-09-25T12:10:25.073Z,100111.78
2022-09-25T12:13:05.156Z,100094.44
2022-09-25T12:16:02.932Z,100094.22
2022-09-25T12:19:01.830Z,100090.28
2022-09-25T12:21:41.537Z,100094.28
2022-09-25T12:24:32.629Z,100084.00
2022-09-25T12:27:15.790Z,100087.28
2022-09-25T12:30:07.510Z,100076.75
2022-09-25T12:32:56.357Z,100068.72
2022-09-25T12:35:46.455Z,100073.06
2022-09-25T12:38:29.120Z,100077.88
2022-09-25T12:41:18.028Z,100071.16
2022-09-25T12:43:54.957Z,100069.84
2022-09-25T12:46:31.925Z,100061.16
2022-09-25T12:49:12.981Z,100061.16
2022-09-25T12:51:47.282Z,100053.50
2022-09-25T12:54:26.861Z,100054.53
2022-09-25T12:57:01.575Z,100057.03
2022-09-25T12:59:45.433Z,100052.16
2022-09-25T13:02:27.043Z,100053.88
2022-09-25T13:05:09.828Z,100045.69
2022-09-25T13:07:50.531Z,100054.16
2022-09-25T13:10:34.427Z,100037.38
2022-09-25T13:13:12.178Z,100047.13
2022-09-25T13:15:44.425Z,100050.78
2022-09-25T13:18:19.861Z,100046.84
2022-09-25T13:20:51.851Z,100044.56
2022-09-25T13:23:41.519Z,100047.53
2022-09-25T13:26:14.158Z,100048.75
2022-09-25T13:28:57.398Z,100036.94
2022-09-25T13:31:32.138Z,100036.44
2022-09-25T13:34:08.055Z,100040.34
2022-09-25T13:36:42.801Z,100035.41
2022-09-25T13:39:44.430Z,100035.75
2022-09-25T13:42:25.631Z,100026.13
2022-09-25T13:45:29.283Z,100034.09
2022-09-25T13:48:09.883Z,100029.94
2022-09-25T13:50:42.854Z,100028.41
2022-09-25T13:53:34.952Z,100025.13
2022-09-25T13:56:47.169Z,100023.78
2022-09-25T13:59:39.547Z,100024.41
2022-09-25T14:02:43.911Z,100025.22
2022-09-25T14:05:21.694Z,100011.69
2022-09-25T14:07:56.031Z,100016.78
2022-09-25T14:10:27.213Z,100020.09
2022-09-25T14:12:56.489Z,100010.97
2022-09-25T14:15:33.032Z,100006.69
2022-09-25T14:18:06.555Z,100008.03
2022-09-25T14:20:41.774Z,100013.84
2022-09-25T14:23:23.247Z,100007.97
2022-09-25T14:25:59.799Z,99996.13
2022-09-25T14:28:31.252Z,100000.91
2022-09-25T14:31:27.144Z,99993.09
2022-09-25T14:34:31.236Z,99994.03
2022-09-25T14:37:25.549Z,99985.19
2022-09-25T14:40:06.707Z,99985.63
2022-09-25T14:43:04.156Z,99979.78
2022-09-25T14:46:00.329Z,99982.75
2022-09-25T14:48:38.607Z,99969.47
2022-09-25T14:51:12.223Z,99968.13
2022-09-25T14:53:48.552Z,99963.09
2022-09-25T14:56:17.517Z,99966.19
2022-09-25T14:58:51.015Z,99948.78
2022-09-25T15:01:29.481Z,99970.53
2022-09-25T15:04:02.934Z,99970.97
2022-09-25T15:06:34.958Z,99963.16
2022-09-25T15:09:29.500Z,99978.13
2022-09-25T15:11:58.335Z,99974.28
2022-09-25T15:14:26.897Z,99967.84
2022-09-25T15:17:13.202Z,99968.75
2022-09-25T15:19:47.358Z,99959.34
2022-09-25T15:22:23.331Z,99957.84
2022-09-25T15:24:58.375Z,99959.56
2022-09-25T15:27:28.260Z,99954.09
2022-09-25T15:30:00.254Z,99947.16
2022-09-25T15:32:38.335Z,99957.50
2022-09-25T15:35:18.277Z,99949.22
2022-09-25T15:37:48.629Z,99954.38
2022-09-25T15:40:25.725Z,99946.84
2022-09-25T15:42:54.977Z,99953.84
2022-09-25T15:45:46.182Z,99952.47
2022-09-25T15:48:33.917Z,99953.16
2022-09-25T15:51:14.986Z,99952.22
2022-09-25T15:53:52.885Z,99947.19
2022-09-25T15:56:27.352Z,99939.53
2022-09-25T15:58:59.945Z,99944.00
2022-09-25T16:01:51.488Z,99939.97
2022-09-25T16:04:40.410Z,99936.22
2022-09-25T16:07:24.953Z,99938.16
2022-09-25T16:09:57.230Z,99941.38
2022-09-25T16:12:35.542Z,99938.06
2022-09-25T16:15:45.774Z,99932.03
2022-09-25T16:18:39.590Z,99933.44
2022-09-25T16:21:23.562Z,99932.75
2022-09-25T16:23:59.591Z,99925.50
2022-09-25T16:26:37.597Z,99925.06
2022-09-25T16:29:20.724Z,99922.31
2022-09-25T16:31:53.566Z,99918.00
2022-09-25T16:34:28.413Z,99922.44
2022-09-25T16:37:01.034Z,99916.06
2022-09-25T16:39:35.142Z,99916.97
2022-09-25T16:42:35.679Z,99923.91
2022-09-25T16:45:17.562Z,99924.75
2022-09-25T16:47:49.490Z,99925.13
2022-09-25T16:50:20.390Z,99921.94
2022-09-25T16:52:50.207Z,99923.59
2022-09-25T16:55:23.642Z,99912.97
2022-09-25T16:57:54.148Z,99923.41
2022-09-25T17:00:27.413Z,99914.09
2022-09-25T17:02:56.790Z,99922.53
2022-09-25T17:05:29.497Z,99872.38
2022-09-25T17:08:03.644Z,99920.44
2022-09-25T17:10:33.705Z,99923.94
2022-09-25T17:13:03.806Z,99909.13
2022-09-25T17:15:37.393Z,99918.34
2022-09-25T17:18:15.529Z,99923.31
2022-09-25T17:20:44.298Z,99923.25
2022-09-25T17:23:15.298Z,99928.22
2022-09-25T17:25:48.402Z,99931.25
2022-09-25T17:28:17.976Z,99923.16
2022-09-25T17:30:47.942Z,99922.59
2022-09-25T17:33:19.045Z,99923.56
2022-09-25T17:35:52.131Z,99919.22
2022-09-25T17:38:21.368Z,99931.59
2022-09-25T17:40:53.341Z,99925.38
2022-09-25T17:43:22.204Z,99918.41
2022-09-25T17:45:54.536Z,99920.09
2022-09-25T17:48:27.402Z,99907.53
2022-09-25T17:50:59.382Z,99914.50
2022-09-25T17:53:31.220Z,99902.63
2022-09-25T17:56:01.874Z,99905.00
2022-09-25T17:58:32.621Z,99903.56
2022-09-25T18:01:06.723Z,99908.16
2022-09-25T18:03:35.618Z,99881.00
2022-09-25T18:06:05.301Z,99898.09
2022-09-25T18:08:34.140Z,99894.06
2022-09-25T18:11:03.014Z,99891.16
2022-09-25T18:13:31.633Z,99891.56
2022-09-25T18:16:03.571Z,99889.28
2022-09-25T18:18:46.156Z,99891.81
2022-09-25T18:21:37.980Z,99893.75
2022-09-25T18:24:07.181Z,99892.88
2022-09-25T18:26:36.049Z,99888.97
2022-09-25T18:29:05.241Z,99886.72
2022-09-25T18:31:35.543Z,99887.69
2022-09-25T18:34:04.407Z,99889.47
2022-09-25T18:36:32.995Z,99882.78
2022-09-25T18:39:01.601Z,99890.56
2022-09-25T18:41:31.098Z,99888.06
2022-09-25T18:43:59.725Z,99892.75
2022-09-25T18:46:28.422Z,99888.72
2022-09-25T18:48:59.606Z,99887.28
2022-09-25T18:51:28.287Z,99892.09
2022-09-25T18:53:56.941Z,99885.88
2022-09-25T18:56:27.177Z,99894.38
2022-09-25T18:58:56.009Z,99887.41
2022-09-25T19:01:24.872Z,99885.16
2022-09-25T19:03:54.280Z,99887.81
2022-09-25T19:06:24.292Z,99884.56
2022-09-25T19:08:54.441Z,99876.81
2022-09-25T19:11:24.324Z,99879.69
2022-09-25T19:13:53.061Z,99885.41
2022-09-25T19:16:22.746Z,99880.63
2022-09-25T19:18:51.798Z,99885.22
2022-09-25T19:21:24.617Z,99889.38
2022-09-25T19:23:54.351Z,99885.34
2022-09-25T19:26:25.914Z,99879.22
2022-09-25T19:28:55.632Z,99877.41
2022-09-25T19:31:27.497Z,99869.06
2022-09-25T19:33:58.031Z,99876.00
2022-09-25T19:36:31.339Z,99872.69
2022-09-25T19:39:01.955Z,99864.69
2022-09-25T19:41:33.435Z,99866.38
2022-09-25T19:44:12.949Z,99869.50
2022-09-25T19:46:43.165Z,99863.56
2022-09-25T19:49:12.888Z,99850.66
2022-09-25T19:51:44.230Z,99864.31
2022-09-25T19:54:15.935Z,99871.63
2022-09-25T19:56:46.230Z,99863.84
2022-09-25T19:59:17.519Z,99871.34
2022-09-25T20:01:46.380Z,99862.50
2022-09-25T20:04:19.049Z,99858.81
2022-09-25T20:06:50.601Z,99865.28
2022-09-25T20:09:19.585Z,99865.25
2022-09-25T20:11:48.413Z,99862.16
2022-09-25T20:14:20.409Z,99860.97
2022-09-25T20:16:49.112Z,99867.53
2022-09-25T20:19:19.338Z,99862.38
2022-09-25T20:21:48.515Z,99867.38
2022-09-25T20:24:20.081Z,99859.22
2022-09-25T20:26:49.247Z,99866.41
2022-09-25T20:29:19.799Z,99855.59
2022-09-25T20:31:48.751Z,99864.34
2022-09-25T20:34:21.833Z,99858.84
2022-09-25T20:36:50.799Z,99859.16
2022-09-25T20:39:21.608Z,99855.09
2022-09-25T20:41:51.084Z,99846.00
2022-09-25T20:44:19.752Z,99855.06
2022-09-25T20:46:48.762Z,99863.41
2022-09-25T20:49:20.102Z,99865.44
2022-09-25T20:51:48.640Z,99860.50
2022-09-25T20:54:17.544Z,99860.84
2022-09-25T20:56:47.575Z,99861.16
2022-09-25T20:59:18.201Z,99860.34
2022-09-25T21:01:47.266Z,99863.53
2022-09-25T21:04:18.094Z,99863.00
2022-09-25T21:06:46.865Z,99864.16
2022-09-25T21:09:22.720Z,99861.75
2022-09-25T21:11:53.192Z,99863.97
2022-09-25T21:14:25.043Z,99868.50
2022-09-25T21:16:56.308Z,99859.59
2022-09-25T21:19:25.354Z,99857.28
2022-09-25T21:21:53.913Z,99864.88
2022-09-25T21:24:23.203Z,99844.63
2022-09-25T21:26:53.454Z,99857.75
2022-09-25T21:29:22.237Z,99859.97
2022-09-25T21:31:51.228Z,99859.25
2022-09-25T21:34:20.687Z,99861.66
2022-09-25T21:36:50.119Z,99854.94
2022-09-25T21:39:21.309Z,99848.34
2022-09-25T21:41:50.932Z,99856.31
2022-09-25T21:44:24.968Z,99847.53
2022-09-25T21:46:53.525Z,99846.50
2022-09-25T21:49:23.638Z,99846.59
2022-09-25T21:51:52.466Z,99847.75
2022-09-25T21:54:21.883Z,99851.31
2022-09-25T21:56:50.882Z,99839.81
2022-09-25T21:59:21.053Z,99840.00
2022-09-25T22:01:50.296Z,99831.72
2022-09-25T22:04:19.267Z,99828.28
2022-09-25T22:06:49.253Z,99827.84
2022-09-25T22:09:20.732Z,99828.16
2022-09-25T22:11:51.233Z,99818.59
2022-09-25T22:14:22.538Z,99814.22
2022-09-25T22:16:53.312Z,99814.22
2022-09-25T22:19:25.398Z,99816.94
2022-09-25T22:21:56.735Z,99811.41
2022-09-25T22:24:25.881Z,99812.97
2022-09-25T22:26:56.736Z,99812.41
2022-09-25T22:29:26.979Z,99808.03
2022-09-25T22:31:55.802Z,99803.84
2022-09-25T22:34:26.322Z,99808.75
2022-09-25T22:36:59.573Z,99811.78
2022-09-25T22:39:30.648Z,99797.13
2022-09-25T22:41:59.366Z,99801.41
2022-09-25T22:44:29.501Z,99802.91
2022-09-25T22:47:01.382Z,99802.28
2022-09-25T22:49:32.186Z,99801.41
2022-09-25T22:52:01.123Z,99792.91
2022-09-25T22:54:29.715Z,99792.38
2022-09-25T22:56:58.289Z,99794.19
2022-09-25T22:59:27.069Z,99784.75
2022-09-25T23:01:57.189Z,99772.91
2022-09-25T23:04:26.766Z,99778.66
2022-09-25T23:06:55.568Z,99781.28
2022-09-25T23:09:26.229Z,99775.41
2022-09-25T23:11:56.647Z,99772.25
2022-09-25T23:14:31.193Z,99771.53
2022-09-25T23:17:01.330Z,99761.66
2022-09-25T23:19:30.295Z,99755.69
2022-09-25T23:21:59.367Z,99758.41
2022-09-25T23:24:28.487Z,99750.44
2022-09-25T23:26:57.395Z,99757.56
2022-09-25T23:29:26.033Z,99756.75
2022-09-25T23:31:54.600Z,99743.97
2022-09-25T23:34:25.120Z,99750.66
2022-09-25T23:36:54.080Z,99754.56
2022-09-25T23:39:22.585Z,99751.84
2022-09-25T23:41:51.553Z,99756.75
2022-09-25T23:44:20.085Z,99754.78
2022-09-25T23:46:48.625Z,99745.88
2022-09-25T23:49:17.523Z,99751.22
2022-09-25T23:51:48.208Z,99752.06
2022-09-25T23:54:18.378Z,99748.50
2022-09-25T23:56:47.316Z,99746.09
2022-09-25T23:59:16.113Z,99744.69
